createdAt,value
2018-11-06T00:01:23.162Z,9.80
2018-11-06T00:03:49.980Z,9.60
2018-11-06T00:06:16.050Z,9.60
2018-11-06T00:08:42.083Z,9.60
2018-11-06T00:11:08.127Z,9.60
2018-11-06T00:13:34.148Z,9.60
2018-11-06T00:16:00.152Z,9.40
2018-11-06T00:18:26.172Z,9.50
2018-11-06T00:20:52.484Z,9.60
2018-11-06T00:23:19.218Z,9.30
2018-11-06T00:25:45.209Z,9.30
2018-11-06T00:28:11.175Z,9.00
2018-11-06T00:30:37.972Z,8.60
2018-11-06T00:33:04.037Z,8.60
2018-11-06T00:35:30.805Z,8.50
2018-11-06T00:38:11.813Z,8.50
2018-11-06T00:40:37.860Z,8.60
2018-11-06T00:43:04.713Z,8.80
2018-11-06T00:45:31.012Z,8.80
2018-11-06T00:47:57.006Z,8.90
2018-11-06T00:50:23.019Z,8.70
2018-11-06T00:52:49.023Z,8.70
2018-11-06T00:55:15.829Z,8.80
2018-11-06T00:57:41.898Z,8.80
2018-11-06T01:00:17.909Z,8.90
2018-11-06T01:02:43.941Z,8.80
2018-11-06T01:05:09.933Z,8.40
2018-11-06T01:07:35.965Z,8.20
2018-11-06T01:10:01.970Z,8.10
2018-11-06T01:12:27.979Z,8.10
2018-11-06T01:14:53.978Z,8.00
2018-11-06T01:17:19.963Z,8.10
2018-11-06T01:19:45.942Z,8.10
2018-11-06T01:22:11.958Z,8.00
2018-11-06T01:24:37.973Z,8.00
2018-11-06T01:27:04.761Z,7.90
2018-11-06T01:29:30.786Z,7.90
2018-11-06T01:31:56.784Z,7.90
2018-11-06T01:34:22.780Z,7.80
2018-11-06T01:36:48.807Z,7.70
2018-11-06T01:39:14.810Z,7.80
2018-11-06T01:41:40.814Z,7.90
2018-11-06T01:44:06.815Z,8.10
2018-11-06T01:46:32.824Z,8.30
2018-11-06T01:48:58.869Z,8.20
2018-11-06T01:51:24.914Z,8.30
2018-11-06T01:53:51.177Z,8.40
2018-11-06T01:56:17.219Z,8.60
2018-11-06T01:58:44.008Z,8.80
2018-11-06T02:01:10.037Z,8.80
2018-11-06T02:03:36.104Z,9.00
2018-11-06T02:06:02.890Z,8.80
2018-11-06T02:08:28.956Z,8.80
2018-11-06T02:10:55.286Z,8.70
2018-11-06T02:13:21.304Z,8.70
2018-11-06T02:15:47.324Z,8.60
2018-11-06T02:18:13.348Z,8.70
2018-11-06T02:20:39.376Z,8.60
2018-11-06T02:23:05.426Z,8.50
2018-11-06T02:25:31.469Z,8.50
2018-11-06T02:27:57.521Z,8.50
2018-11-06T02:30:23.615Z,8.50
2018-11-06T02:32:49.636Z,8.40
2018-11-06T02:35:15.640Z,8.50
2018-11-06T02:37:42.461Z,8.50
2018-11-06T02:40:08.536Z,8.50
2018-11-06T02:42:34.559Z,8.60
2018-11-06T02:45:00.597Z,8.70
2018-11-06T02:47:26.641Z,8.80
2018-11-06T02:49:52.620Z,8.80
2018-11-06T02:52:19.411Z,8.90
2018-11-06T02:54:45.405Z,8.90
2018-11-06T02:57:11.439Z,9.00
2018-11-06T02:59:37.448Z,9.00
2018-11-06T03:02:03.472Z,9.00
2018-11-06T03:04:29.475Z,8.90
2018-11-06T03:06:55.496Z,8.80
2018-11-06T03:09:22.260Z,8.30
2018-11-06T03:11:48.316Z,8.30
2018-11-06T03:14:14.336Z,8.30
2018-11-06T03:16:40.358Z,8.30
2018-11-06T03:19:06.350Z,8.30
2018-11-06T03:21:32.337Z,8.30
2018-11-06T03:23:58.428Z,8.50
2018-11-06T03:26:24.514Z,8.60
2018-11-06T03:28:51.249Z,8.60
2018-11-06T03:31:17.253Z,8.60
2018-11-06T03:33:43.276Z,8.60
2018-11-06T03:36:09.286Z,8.70
2018-11-06T03:38:35.261Z,8.80
2018-11-06T03:41:01.272Z,8.80
2018-11-06T03:43:27.249Z,8.60
2018-11-06T03:45:53.227Z,8.70
2018-11-06T03:48:19.224Z,8.60
2018-11-06T03:50:45.943Z,8.50
2018-11-06T03:53:11.926Z,8.50
2018-11-06T03:55:37.905Z,8.60
2018-11-06T03:58:03.880Z,8.60
2018-11-06T04:00:29.949Z,8.60
2018-11-06T04:02:55.941Z,8.60
2018-11-06T04:05:22.361Z,8.50
2018-11-06T04:07:48.341Z,8.00
2018-11-06T04:10:15.097Z,7.20
2018-11-06T04:12:41.072Z,7.10
2018-11-06T04:15:07.057Z,7.00
2018-11-06T04:17:33.039Z,7.00
2018-11-06T04:19:59.027Z,7.10
2018-11-06T04:22:25.010Z,7.10
2018-11-06T04:24:50.984Z,7.20
2018-11-06T04:27:16.966Z,7.10
2018-11-06T04:29:42.982Z,7.20
2018-11-06T04:32:09.695Z,7.50
2018-11-06T04:34:35.672Z,7.40
2018-11-06T04:37:01.686Z,7.00
2018-11-06T04:39:27.667Z,6.90
2018-11-06T04:41:54.385Z,6.60
2018-11-06T04:44:20.453Z,6.60
2018-11-06T04:46:46.438Z,6.60
2018-11-06T04:49:12.433Z,6.70
2018-11-06T04:51:38.389Z,6.70
2018-11-06T04:54:04.382Z,6.90
2018-11-06T04:56:30.341Z,7.00
2018-11-06T04:58:56.325Z,7.20
2018-11-06T05:01:22.317Z,7.20
2018-11-06T05:03:48.311Z,7.30
2018-11-06T05:06:14.293Z,7.50
2018-11-06T05:08:40.280Z,7.50
2018-11-06T05:11:06.274Z,7.40
2018-11-06T05:13:32.258Z,7.20
2018-11-06T05:15:58.227Z,7.00
2018-11-06T05:18:24.218Z,6.50
2018-11-06T05:20:50.178Z,6.30
2018-11-06T05:23:16.158Z,6.40
2018-11-06T05:25:42.158Z,6.40
2018-11-06T05:28:08.129Z,6.50
2018-11-06T05:30:34.117Z,6.20
2018-11-06T05:33:00.126Z,6.20
2018-11-06T05:35:26.836Z,6.10
2018-11-06T05:37:53.568Z,6.20
2018-11-06T05:40:42.513Z,6.20
2018-11-06T05:43:08.517Z,6.30
2018-11-06T05:45:34.604Z,6.20
2018-11-06T05:48:00.573Z,6.20
2018-11-06T05:50:26.556Z,5.90
2018-11-06T05:52:52.535Z,5.90
2018-11-06T05:55:18.528Z,5.60
2018-11-06T05:57:44.500Z,5.70
2018-11-06T06:00:11.212Z,5.70
2018-11-06T06:02:37.210Z,5.70
2018-11-06T06:05:03.192Z,5.80
2018-11-06T06:07:29.912Z,5.90
2018-11-06T06:09:55.899Z,5.90
2018-11-06T06:12:21.876Z,6.10
2018-11-06T06:14:48.636Z,6.50
2018-11-06T06:17:14.682Z,6.50
2018-11-06T06:19:40.612Z,6.70
2018-11-06T06:22:06.593Z,6.90
2018-11-06T06:24:33.324Z,7.30
2018-11-06T06:27:00.040Z,7.50
2018-11-06T06:29:26.028Z,7.50
2018-11-06T06:31:52.036Z,7.70
2018-11-06T06:34:18.038Z,7.80
2018-11-06T06:36:44.740Z,8.10
2018-11-06T06:39:10.732Z,8.10
2018-11-06T06:41:36.721Z,8.20
2018-11-06T06:44:03.443Z,8.40
2018-11-06T06:46:29.529Z,8.40
2018-11-06T06:48:55.414Z,8.40
2018-11-06T06:51:21.373Z,8.40
2018-11-06T06:53:47.364Z,8.50
2018-11-06T06:56:14.100Z,8.40
2018-11-06T06:58:40.078Z,8.40
2018-11-06T07:01:06.079Z,8.40
2018-11-06T07:03:32.061Z,8.30
2018-11-06T07:05:58.793Z,8.20
2018-11-06T07:08:24.768Z,8.20
2018-11-06T07:10:50.758Z,8.10
2018-11-06T07:13:17.504Z,8.30
2018-11-06T07:15:43.487Z,8.30
2018-11-06T07:18:09.476Z,8.40
2018-11-06T07:20:35.473Z,8.60
2018-11-06T07:23:01.441Z,8.70
2018-11-06T07:25:27.448Z,8.70
2018-11-06T07:27:53.445Z,8.80
2018-11-06T07:30:26.456Z,9.00
2018-11-06T07:32:52.434Z,9.10
2018-11-06T07:35:19.253Z,9.80
2018-11-06T07:37:45.191Z,9.70
2018-11-06T07:40:11.182Z,10.10
2018-11-06T07:42:37.179Z,10.30
2018-11-06T07:45:03.188Z,10.50
2018-11-06T07:47:29.169Z,10.70
2018-11-06T07:49:55.307Z,11.20
2018-11-06T07:52:21.953Z,11.40
2018-11-06T07:54:48.716Z,11.50
2018-11-06T07:57:14.746Z,11.50
2018-11-06T07:59:40.775Z,11.50
2018-11-06T08:02:06.804Z,11.30
2018-11-06T08:04:32.840Z,11.40
2018-11-06T08:06:58.905Z,11.00
2018-11-06T08:09:24.996Z,10.70
2018-11-06T08:11:51.052Z,10.20
2018-11-06T08:14:17.097Z,9.90
2018-11-06T08:16:43.874Z,9.90
2018-11-06T08:19:09.919Z,9.80
2018-11-06T08:21:35.947Z,9.80
2018-11-06T08:24:02.072Z,9.80
2018-11-06T08:26:28.779Z,10.10
2018-11-06T08:28:54.834Z,10.10
2018-11-06T08:31:21.302Z,10.20
2018-11-06T08:33:46.973Z,10.30
2018-11-06T08:36:13.017Z,10.60
2018-11-06T08:38:39.028Z,10.80
2018-11-06T08:41:05.071Z,10.70
2018-11-06T08:43:31.111Z,10.80
2018-11-06T08:45:57.916Z,11.20
2018-11-06T08:48:23.970Z,11.20
2018-11-06T08:50:50.006Z,11.30
2018-11-06T08:53:16.793Z,11.80
2018-11-06T08:55:42.810Z,11.80
2018-11-06T08:58:08.825Z,12.20
2018-11-06T09:00:34.862Z,12.30
2018-11-06T09:03:01.117Z,12.50
2018-11-06T09:05:27.281Z,12.50
2018-11-06T09:07:54.065Z,12.50
2018-11-06T09:10:20.103Z,12.50
2018-11-06T09:12:46.152Z,12.70
2018-11-06T09:15:12.965Z,12.80
2018-11-06T09:17:38.968Z,12.80
2018-11-06T09:20:04.950Z,12.70
2018-11-06T09:22:30.924Z,13.00
2018-11-06T09:24:56.922Z,13.10
2018-11-06T09:27:22.926Z,13.10
2018-11-06T09:29:49.649Z,12.40
2018-11-06T09:32:15.636Z,12.40
2018-11-06T09:34:41.628Z,12.40
2018-11-06T09:37:08.337Z,12.20
2018-11-06T09:39:34.320Z,12.20
2018-11-06T09:42:00.313Z,12.40
2018-11-06T09:44:26.317Z,12.50
2018-11-06T09:46:52.309Z,12.90
2018-11-06T09:49:18.333Z,13.00
2018-11-06T09:51:44.296Z,13.00
2018-11-06T09:54:10.363Z,13.10
2018-11-06T09:56:36.358Z,13.30
2018-11-06T09:59:03.117Z,13.50
2018-11-06T10:01:29.134Z,13.50
2018-11-06T10:03:55.121Z,13.70
2018-11-06T10:06:21.193Z,13.80
2018-11-06T10:08:47.097Z,13.90
2018-11-06T10:11:13.066Z,13.90
2018-11-06T10:13:45.816Z,14.00
2018-11-06T10:16:11.790Z,14.10
2018-11-06T10:18:37.804Z,14.20
2018-11-06T10:21:03.810Z,14.30
2018-11-06T10:23:29.791Z,14.00
2018-11-06T10:25:56.516Z,14.10
2018-11-06T10:28:23.291Z,14.10
2018-11-06T10:30:49.356Z,14.10
2018-11-06T10:33:15.281Z,14.20
2018-11-06T10:35:41.596Z,14.30
2018-11-06T10:38:07.926Z,14.20
2018-11-06T10:40:34.416Z,14.10
2018-11-06T10:43:00.906Z,14.00
2018-11-06T10:45:27.477Z,14.10
2018-11-06T10:47:53.969Z,14.10
2018-11-06T10:50:20.648Z,14.20
2018-11-06T10:52:47.084Z,14.20
2018-11-06T10:55:13.617Z,14.40
2018-11-06T10:57:40.081Z,14.40
2018-11-06T11:00:06.668Z,14.40
2018-11-06T11:02:33.287Z,14.60
2018-11-06T11:04:59.703Z,15.00
2018-11-06T11:07:25.784Z,15.40
2018-11-06T11:09:52.243Z,15.20
2018-11-06T11:12:19.547Z,15.30
2018-11-06T11:14:47.548Z,15.30
2018-11-06T11:17:14.159Z,14.90
2018-11-06T11:19:40.800Z,14.80
2018-11-06T11:22:07.439Z,15.10
2018-11-06T11:24:34.019Z,15.30
2018-11-06T11:27:00.553Z,14.70
2018-11-06T11:29:27.946Z,14.60
2018-11-06T11:31:54.456Z,14.60
2018-11-06T11:34:21.930Z,14.80
2018-11-06T11:36:48.501Z,15.00
2018-11-06T11:39:15.068Z,14.50
2018-11-06T11:41:41.650Z,14.70
2018-11-06T11:44:08.198Z,14.80
2018-11-06T11:46:34.782Z,14.70
2018-11-06T11:49:01.308Z,14.60
2018-11-06T11:51:29.130Z,14.90
2018-11-06T11:53:55.717Z,14.80
2018-11-06T11:56:22.933Z,14.80
2018-11-06T11:58:49.462Z,14.80
2018-11-06T12:01:15.685Z,14.70
2018-11-06T12:03:42.297Z,14.90
2018-11-06T12:06:08.846Z,14.80
2018-11-06T12:08:35.297Z,14.80
2018-11-06T12:11:01.793Z,14.90
2018-11-06T12:13:28.314Z,15.10
2018-11-06T12:15:54.751Z,15.20
2018-11-06T12:18:21.126Z,15.40
2018-11-06T12:20:47.368Z,15.50
2018-11-06T12:23:13.588Z,15.50
2018-11-06T12:25:40.208Z,15.50
2018-11-06T12:28:06.661Z,15.40
2018-11-06T12:30:33.302Z,15.40
2018-11-06T12:32:59.837Z,15.30
2018-11-06T12:35:26.481Z,15.40
2018-11-06T12:37:53.097Z,15.40
2018-11-06T12:40:19.636Z,15.50
2018-11-06T12:42:46.083Z,15.60
2018-11-06T12:45:12.723Z,15.50
2018-11-06T12:47:42.108Z,15.50
2018-11-06T12:50:08.549Z,15.50
2018-11-06T12:52:34.941Z,15.40
2018-11-06T12:55:01.118Z,15.30
2018-11-06T12:57:27.663Z,15.30
2018-11-06T12:59:54.158Z,15.30
2018-11-06T13:02:20.982Z,15.00
2018-11-06T13:04:47.464Z,15.00
2018-11-06T13:07:13.812Z,15.20
2018-11-06T13:09:40.165Z,15.10
2018-11-06T13:12:07.385Z,15.30
2018-11-06T13:14:33.954Z,15.30
2018-11-06T13:17:00.068Z,15.50
2018-11-06T13:19:26.376Z,15.60
2018-11-06T13:21:52.792Z,15.50
2018-11-06T13:24:19.276Z,15.60
2018-11-06T13:26:45.820Z,15.60
2018-11-06T13:29:12.439Z,15.50
2018-11-06T13:31:39.066Z,15.50
2018-11-06T13:34:05.983Z,15.60
2018-11-06T13:36:32.583Z,15.50
2018-11-06T13:38:59.281Z,15.50
2018-11-06T13:41:25.970Z,15.50
2018-11-06T13:43:52.913Z,15.20
2018-11-06T13:46:19.503Z,15.30
2018-11-06T13:48:46.135Z,15.20
2018-11-06T13:51:12.948Z,15.30
2018-11-06T13:53:38.962Z,15.30
2018-11-06T13:56:04.992Z,15.40
2018-11-06T13:58:31.036Z,15.50
2018-11-06T14:00:57.044Z,15.40
2018-11-06T14:03:30.204Z,15.60
2018-11-06T14:05:56.274Z,15.60
2018-11-06T14:08:22.485Z,15.60
2018-11-06T14:10:48.528Z,15.70
2018-11-06T14:13:14.580Z,15.70
2018-11-06T14:15:40.762Z,15.70
2018-11-06T14:18:07.002Z,15.70
2018-11-06T14:20:33.152Z,15.70
2018-11-06T14:22:59.575Z,15.70
2018-11-06T14:25:25.645Z,15.50
2018-11-06T14:27:51.700Z,15.50
2018-11-06T14:30:17.657Z,15.60
2018-11-06T14:32:43.647Z,15.70
2018-11-06T14:35:09.614Z,15.80
2018-11-06T14:37:35.582Z,16.00
2018-11-06T14:40:01.969Z,16.00
2018-11-06T14:42:28.052Z,16.00
2018-11-06T14:44:53.983Z,16.10
2018-11-06T14:47:19.960Z,16.10
2018-11-06T14:49:46.661Z,16.00
2018-11-06T14:52:12.652Z,15.90
2018-11-06T14:54:38.652Z,15.80
2018-11-06T14:57:04.648Z,15.80
2018-11-06T14:59:30.618Z,15.80
2018-11-06T15:01:56.649Z,15.80
2018-11-06T15:04:22.632Z,15.90
2018-11-06T15:06:49.378Z,15.80
2018-11-06T15:09:15.419Z,15.80
2018-11-06T15:11:41.402Z,15.80
2018-11-06T15:14:07.475Z,15.60
2018-11-06T15:16:33.577Z,15.60
2018-11-06T15:19:00.321Z,15.50
2018-11-06T15:21:27.049Z,15.50
2018-11-06T15:23:53.058Z,15.40
2018-11-06T15:26:19.039Z,15.40
2018-11-06T15:28:45.417Z,15.30
2018-11-06T15:31:12.262Z,15.20
2018-11-06T15:33:38.999Z,15.20
2018-11-06T15:36:04.993Z,15.20
2018-11-06T15:38:31.053Z,15.10
2018-11-06T15:40:57.107Z,15.00
2018-11-06T15:43:23.067Z,14.90
2018-11-06T15:45:49.057Z,14.90
2018-11-06T15:48:15.279Z,14.80
2018-11-06T15:50:41.310Z,14.70
2018-11-06T15:53:07.288Z,14.70
2018-11-06T15:55:33.583Z,14.60
2018-11-06T15:57:59.614Z,14.50
2018-11-06T16:00:25.831Z,14.60
2018-11-06T16:02:51.889Z,14.50
2018-11-06T16:05:17.897Z,14.50
2018-11-06T16:07:43.905Z,14.40
2018-11-06T16:10:10.669Z,14.10
2018-11-06T16:12:36.664Z,14.10
2018-11-06T16:15:03.266Z,14.10
2018-11-06T16:17:29.377Z,14.10
2018-11-06T16:19:55.781Z,14.10
2018-11-06T16:22:21.794Z,14.10
2018-11-06T16:24:47.786Z,14.10
2018-11-06T16:27:14.533Z,14.10
2018-11-06T16:29:40.534Z,14.10
2018-11-06T16:32:06.499Z,14.10
2018-11-06T16:34:33.009Z,14.00
2018-11-06T16:36:59.421Z,14.00
2018-11-06T16:39:25.503Z,13.90
2018-11-06T16:41:51.795Z,13.90
2018-11-06T16:44:18.070Z,13.90
2018-11-06T16:46:44.142Z,13.80
2018-11-06T16:49:10.521Z,13.70
2018-11-06T16:51:36.556Z,13.50
2018-11-06T16:54:02.529Z,13.30
2018-11-06T16:56:29.328Z,13.10
2018-11-06T16:58:55.388Z,13.00
2018-11-06T17:01:22.140Z,12.90
2018-11-06T17:03:48.108Z,12.90
2018-11-06T17:06:14.104Z,13.00
2018-11-06T17:08:40.110Z,13.00
2018-11-06T17:11:06.323Z,12.90
2018-11-06T17:13:32.333Z,12.90
2018-11-06T17:15:58.322Z,12.80
2018-11-06T17:18:24.317Z,12.80
2018-11-06T17:20:50.289Z,12.70
2018-11-06T17:23:16.303Z,12.60
2018-11-06T17:25:42.293Z,12.50
2018-11-06T17:28:09.012Z,12.50
2018-11-06T17:30:35.761Z,12.50
2018-11-06T17:33:01.749Z,12.40
2018-11-06T17:35:27.768Z,12.40
2018-11-06T17:37:53.785Z,12.40
2018-11-06T17:40:19.842Z,12.40
2018-11-06T17:42:45.860Z,12.40
2018-11-06T17:45:11.922Z,12.40
2018-11-06T17:47:37.848Z,12.30
2018-11-06T17:50:03.812Z,12.30
2018-11-06T17:52:29.817Z,12.30
2018-11-06T17:54:55.858Z,12.30
2018-11-06T17:57:21.811Z,12.30
2018-11-06T17:59:48.568Z,12.30
2018-11-06T18:02:14.611Z,12.30
2018-11-06T18:04:40.629Z,12.20
2018-11-06T18:07:06.567Z,12.30
2018-11-06T18:09:32.549Z,12.20
2018-11-06T18:11:59.325Z,12.20
2018-11-06T18:14:25.294Z,12.20
2018-11-06T18:17:01.337Z,12.20
2018-11-06T18:19:27.337Z,12.20
2018-11-06T18:21:53.357Z,12.20
2018-11-06T18:24:19.388Z,12.20
2018-11-06T18:26:45.455Z,12.20
2018-11-06T18:29:11.428Z,12.30
2018-11-06T18:31:37.498Z,12.30
2018-11-06T18:34:03.417Z,12.30
2018-11-06T18:36:29.640Z,12.20
2018-11-06T18:38:56.000Z,12.30
2018-11-06T18:41:22.478Z,12.30
2018-11-06T18:43:48.607Z,12.20
2018-11-06T18:46:15.098Z,12.20
2018-11-06T18:48:41.301Z,12.10
2018-11-06T18:51:07.307Z,12.10
2018-11-06T18:53:33.560Z,12.10
2018-11-06T18:55:59.870Z,12.20
2018-11-06T18:58:25.990Z,12.10
2018-11-06T19:00:51.977Z,12.00
2018-11-06T19:03:17.956Z,12.00
2018-11-06T19:05:43.963Z,11.90
2018-11-06T19:08:09.933Z,11.90
2018-11-06T19:10:36.236Z,11.90
2018-11-06T19:13:02.271Z,11.80
2018-11-06T19:15:28.338Z,11.80
2018-11-06T19:17:54.785Z,11.90
2018-11-06T19:20:20.884Z,11.90
2018-11-06T19:22:46.947Z,11.80
2018-11-06T19:25:12.949Z,11.80
2018-11-06T19:27:38.980Z,11.60
2018-11-06T19:30:05.012Z,11.50
2018-11-06T19:32:31.108Z,11.50
2018-11-06T19:34:57.131Z,11.50
2018-11-06T19:37:23.327Z,11.50
2018-11-06T19:39:50.070Z,11.50
2018-11-06T19:42:16.124Z,11.50
2018-11-06T19:44:42.241Z,11.50
2018-11-06T19:47:08.287Z,11.40
2018-11-06T19:49:34.423Z,11.40
2018-11-06T19:52:00.598Z,11.40
2018-11-06T19:54:27.363Z,11.50
2018-11-06T19:56:53.718Z,11.50
2018-11-06T19:59:19.782Z,11.40
2018-11-06T20:01:47.547Z,11.40
2018-11-06T20:04:13.604Z,11.30
2018-11-06T20:06:40.276Z,11.40
2018-11-06T20:09:06.386Z,11.40
2018-11-06T20:11:32.474Z,11.40
2018-11-06T20:13:59.240Z,11.40
2018-11-06T20:16:25.230Z,11.40
2018-11-06T20:18:51.230Z,11.40
2018-11-06T20:21:17.261Z,11.30
2018-11-06T20:23:43.602Z,11.30
2018-11-06T20:26:09.490Z,11.30
2018-11-06T20:28:35.513Z,11.20
2018-11-06T20:31:01.717Z,11.20
2018-11-06T20:33:27.896Z,11.20
2018-11-06T20:35:53.768Z,11.20
2018-11-06T20:38:21.064Z,11.20
2018-11-06T20:40:47.196Z,11.20
2018-11-06T20:43:13.320Z,11.20
2018-11-06T20:45:39.258Z,11.20
2018-11-06T20:48:05.376Z,11.20
2018-11-06T20:50:31.506Z,11.20
2018-11-06T20:52:58.391Z,11.10
2018-11-06T20:55:25.239Z,11.10
2018-11-06T20:58:02.186Z,11.10
2018-11-06T21:00:28.420Z,11.10
2018-11-06T21:02:55.291Z,11.20
2018-11-06T21:05:21.305Z,11.20
2018-11-06T21:07:47.306Z,11.20
2018-11-06T21:10:14.036Z,11.20
2018-11-06T21:12:40.897Z,11.20
2018-11-06T21:15:07.642Z,11.30
2018-11-06T21:17:33.677Z,11.20
2018-11-06T21:19:59.786Z,11.30
2018-11-06T21:22:25.704Z,11.30
2018-11-06T21:24:52.526Z,11.10
2018-11-06T21:27:18.564Z,11.10
2018-11-06T21:29:44.556Z,11.00
2018-11-06T21:32:10.572Z,11.00
2018-11-06T21:34:36.575Z,10.90
2018-11-06T21:37:02.900Z,10.90
2018-11-06T21:39:29.693Z,10.90
2018-11-06T21:41:55.834Z,10.90
2018-11-06T21:44:21.793Z,10.80
2018-11-06T21:46:47.772Z,10.80
2018-11-06T21:49:13.762Z,10.80
2018-11-06T21:51:39.739Z,10.90
2018-11-06T21:54:05.710Z,10.90
2018-11-06T21:56:31.677Z,10.90
2018-11-06T21:58:58.393Z,10.90
2018-11-06T22:01:24.352Z,10.80
2018-11-06T22:03:51.081Z,10.90
2018-11-06T22:06:17.795Z,10.90
2018-11-06T22:08:43.775Z,10.90
2018-11-06T22:11:09.740Z,10.90
2018-11-06T22:13:35.729Z,10.90
2018-11-06T22:16:01.707Z,10.90
2018-11-06T22:18:27.733Z,10.90
2018-11-06T22:20:53.741Z,10.80
2018-11-06T22:23:19.725Z,10.70
2018-11-06T22:25:45.696Z,10.70
2018-11-06T22:28:12.418Z,10.70
2018-11-06T22:30:38.409Z,10.60
2018-11-06T22:33:04.451Z,10.60
2018-11-06T22:35:30.377Z,10.60
2018-11-06T22:37:56.396Z,10.60
2018-11-06T22:40:23.093Z,10.60
2018-11-06T22:42:49.065Z,10.60
2018-11-06T22:45:15.048Z,10.60
2018-11-06T22:47:41.065Z,10.60
2018-11-06T22:50:07.052Z,10.70
2018-11-06T22:52:33.016Z,10.70
2018-11-06T22:54:59.022Z,10.60
2018-11-06T22:57:25.759Z,10.40
2018-11-06T22:59:51.743Z,10.40
2018-11-06T23:02:24.849Z,10.40
2018-11-06T23:04:50.842Z,10.30
2018-11-06T23:07:16.996Z,10.30
2018-11-06T23:09:42.846Z,10.30
2018-11-06T23:12:09.682Z,10.40
2018-11-06T23:14:36.462Z,10.40
2018-11-06T23:17:02.473Z,10.40
2018-11-06T23:19:28.473Z,10.40
2018-11-06T23:21:55.192Z,10.30
2018-11-06T23:24:21.192Z,10.30
2018-11-06T23:26:47.203Z,10.30
2018-11-06T23:29:13.204Z,10.30
2018-11-06T23:31:39.263Z,10.20
2018-11-06T23:34:05.929Z,10.30
2018-11-06T23:36:31.912Z,10.30
2018-11-06T23:38:57.898Z,10.30
2018-11-06T23:41:24.622Z,9.90
2018-11-06T23:43:50.617Z,9.90
2018-11-06T23:46:16.609Z,10.00
2018-11-06T23:48:42.585Z,9.70
2018-11-06T23:51:08.576Z,9.60
2018-11-06T23:53:34.608Z,9.50
2018-11-06T23:56:01.394Z,9.20
2018-11-06T23:58:28.117Z,9.20
